createdAt,value
2018-11-25T00:04:30.316Z,94879.08
2018-11-25T00:09:33.655Z,94867.14
2018-11-25T00:14:36.990Z,94860.21
2018-11-25T01:46:04.051Z,94826.63
2018-11-25T01:51:07.409Z,94822.51
2018-11-25T01:56:10.748Z,94806.06
2018-11-25T03:33:15.594Z,94770.13
2018-11-25T03:38:19.699Z,94770.69
2018-11-25T03:43:23.047Z,94770.51
2018-11-25T04:46:03.034Z,94700.00
2018-11-25T04:51:06.375Z,94695.85
2018-11-25T04:56:09.725Z,94697.66
2018-11-25T06:04:29.543Z,94646.90
2018-11-25T06:09:32.886Z,94643.08
2018-11-25T06:14:36.225Z,94630.84
2018-11-25T06:19:40.349Z,94622.29
2018-11-25T06:24:44.443Z,94622.13
2018-11-25T06:29:47.786Z,94624.26
2018-11-25T06:34:51.874Z,94624.76
2018-11-25T06:39:55.213Z,94618.20
2018-11-25T06:44:58.563Z,94622.64
2018-11-25T06:50:01.906Z,94612.15
2018-11-25T06:55:05.252Z,94605.23
2018-11-25T07:00:08.589Z,94610.04
2018-11-25T07:05:11.942Z,94605.98
2018-11-25T07:10:15.286Z,94608.81
2018-11-25T07:15:18.642Z,94612.16
2018-11-25T07:20:21.999Z,94611.27
2018-11-25T07:25:25.356Z,94609.81
2018-11-25T07:30:29.465Z,94613.10
2018-11-25T07:35:32.811Z,94608.28
2018-11-25T07:40:36.158Z,94604.27
2018-11-25T07:45:39.492Z,94598.92
2018-11-25T07:50:42.857Z,94593.73
2018-11-25T07:55:46.195Z,94593.23
2018-11-25T08:00:49.524Z,94582.92
2018-11-25T08:05:52.873Z,94581.01
2018-11-25T08:10:56.977Z,94579.55
2018-11-25T08:16:00.320Z,94570.55
2018-11-25T08:21:04.421Z,94568.53
2018-11-25T08:26:07.776Z,94563.16
2018-11-25T08:31:11.126Z,94553.56
2018-11-25T08:36:14.483Z,94553.42
2018-11-25T08:41:17.831Z,94552.12
2018-11-25T08:46:21.186Z,94554.33
2018-11-25T08:51:24.550Z,94546.61
2018-11-25T08:56:27.931Z,94553.02
2018-11-25T09:01:31.335Z,94555.66
2018-11-25T09:06:34.720Z,94552.56
2018-11-25T09:11:38.076Z,94536.85
2018-11-25T09:16:41.416Z,94545.17
2018-11-25T09:21:44.778Z,94535.52
2018-11-25T09:26:48.107Z,94531.23
2018-11-25T09:31:51.443Z,94527.11
2018-11-25T09:36:54.796Z,94520.34
2018-11-25T09:41:58.125Z,94509.54
2018-11-25T09:47:01.466Z,94504.11
2018-11-25T09:52:08.169Z,94500.75
2018-11-25T09:57:11.493Z,94496.63
2018-11-25T10:02:17.592Z,94486.07
2018-11-25T10:07:20.940Z,94481.45
2018-11-25T10:12:24.276Z,94470.05
2018-11-25T10:17:28.389Z,94462.09
2018-11-25T10:22:31.737Z,94449.40
2018-11-25T10:27:35.086Z,94444.24
2018-11-25T10:32:38.469Z,94433.19
2018-11-25T10:37:42.731Z,94422.50
2018-11-25T10:42:46.075Z,94415.06
2018-11-25T10:47:49.434Z,94410.28
2018-11-25T10:52:52.761Z,94406.28
2018-11-25T10:57:56.115Z,94406.18
2018-11-25T11:02:59.465Z,94402.16
2018-11-25T11:08:03.885Z,94390.10
2018-11-25T11:13:08.017Z,94383.22
2018-11-25T11:18:11.368Z,94373.05
2018-11-25T11:23:14.703Z,94358.42
2018-11-25T11:28:18.050Z,94341.89
2018-11-25T11:33:22.035Z,94332.05
2018-11-25T11:38:24.762Z,94327.38
2018-11-25T11:43:28.121Z,94314.50
2018-11-25T11:48:31.509Z,94301.69
2018-11-25T11:53:34.845Z,94288.92
2018-11-25T11:58:38.186Z,94288.88
2018-11-25T12:03:41.521Z,94265.76
2018-11-25T12:08:48.500Z,94267.59
2018-11-25T12:13:51.865Z,94254.36
2018-11-25T12:18:55.213Z,94255.06
2018-11-25T12:23:58.567Z,94251.41
2018-11-25T12:29:03.922Z,94245.82
2018-11-25T12:34:07.285Z,94238.37
2018-11-25T12:39:11.947Z,94233.07
2018-11-25T12:44:15.322Z,94232.14
2018-11-25T12:49:19.493Z,94236.73
2018-11-25T12:54:22.896Z,94225.25
2018-11-25T12:59:26.380Z,94228.63
2018-11-25T13:04:29.743Z,94231.31
2018-11-25T13:09:33.082Z,94216.52
2018-11-25T13:14:36.424Z,94212.30
2018-11-25T13:19:40.529Z,94214.23
2018-11-25T13:24:43.860Z,94210.58
2018-11-25T13:29:47.960Z,94210.48
2018-11-25T13:34:51.325Z,94204.89
2018-11-25T13:39:54.674Z,94203.61
2018-11-25T13:44:57.237Z,94199.05
2018-11-25T13:50:00.604Z,94198.43
2018-11-25T13:55:03.974Z,94196.61
2018-11-25T14:00:07.328Z,94195.63
2018-11-25T14:05:10.679Z,94189.59
2018-11-25T14:10:14.024Z,94180.43
2018-11-25T14:15:17.360Z,94191.36
2018-11-25T14:20:20.720Z,94189.47
2018-11-25T14:25:24.069Z,94187.73
2018-11-25T14:30:27.412Z,94187.70
2018-11-25T14:35:30.767Z,94187.43
2018-11-25T14:40:34.153Z,94183.23
2018-11-25T14:45:37.508Z,94188.34
2018-11-25T14:50:40.853Z,94192.20
2018-11-25T14:55:44.192Z,94194.55
2018-11-25T15:00:48.307Z,94191.56
2018-11-25T15:05:51.659Z,94201.71
2018-11-25T15:10:55.025Z,94195.61
2018-11-25T15:15:58.372Z,94193.70
2018-11-25T15:21:01.724Z,94184.66
2018-11-25T15:26:05.145Z,94184.95
2018-11-25T15:31:08.502Z,94186.18
2018-11-25T15:36:11.854Z,94182.41
2018-11-25T15:41:15.221Z,94181.40
2018-11-25T15:46:18.568Z,94186.82
2018-11-25T15:51:21.935Z,94185.09
2018-11-25T15:56:26.080Z,94184.75
2018-11-25T16:01:29.436Z,94183.56
2018-11-25T16:06:32.810Z,94181.66
2018-11-25T16:11:36.233Z,94184.52
2018-11-25T16:16:40.367Z,94176.98
2018-11-25T16:21:43.722Z,94175.36
2018-11-25T16:26:47.061Z,94173.83
2018-11-25T16:31:50.765Z,94177.56
2018-11-25T16:36:54.115Z,94185.60
2018-11-25T16:41:57.465Z,94183.67
2018-11-25T16:47:00.805Z,94176.81
2018-11-25T16:52:04.140Z,94178.89
2018-11-25T16:57:07.490Z,94174.14
2018-11-25T17:02:10.837Z,94174.02
2018-11-25T17:07:14.203Z,94176.21
2018-11-25T17:12:18.348Z,94174.75
2018-11-25T17:17:21.707Z,94174.88
2018-11-25T17:22:25.054Z,94172.48
2018-11-25T17:27:29.170Z,94182.95
2018-11-25T17:32:32.514Z,94187.86
2018-11-25T17:37:35.948Z,94177.94
2018-11-25T17:47:55.521Z,94176.55
2018-11-25T17:52:58.881Z,94171.42
2018-11-25T17:58:02.250Z,94170.81
2018-11-25T18:03:05.674Z,94164.10
2018-11-25T18:08:09.053Z,94169.02
2018-11-25T18:13:12.406Z,94172.65
2018-11-25T18:18:16.820Z,94174.06
2018-11-25T18:23:20.441Z,94173.39
2018-11-25T18:28:23.790Z,94171.50
2018-11-25T18:33:27.900Z,94158.02
2018-11-25T18:38:31.236Z,94154.66
2018-11-25T18:43:35.349Z,94149.83
2018-11-25T18:48:38.967Z,94143.73
2018-11-25T18:53:42.308Z,94149.31
2018-11-25T18:58:45.655Z,94150.44
2018-11-25T19:03:49.001Z,94149.56
2018-11-25T19:08:52.384Z,94145.90
2018-11-25T19:13:55.741Z,94143.70
2018-11-25T19:18:59.932Z,94137.52
2018-11-25T19:24:03.301Z,94128.88
2018-11-25T19:29:07.402Z,94133.78
2018-11-25T19:34:17.682Z,94133.75
2018-11-25T19:39:25.196Z,94136.81
2018-11-25T19:44:29.559Z,94138.44
2018-11-25T19:49:33.064Z,94135.81
2018-11-25T19:54:36.458Z,94134.77
2018-11-25T19:59:39.817Z,94135.41
2018-11-25T20:04:43.335Z,94134.80
2018-11-25T20:09:47.545Z,94127.95
2018-11-25T20:14:50.922Z,94119.59
2018-11-25T20:19:54.288Z,94119.36
2018-11-25T20:24:57.627Z,94118.65
2018-11-25T20:30:00.981Z,94114.41
2018-11-25T20:35:05.171Z,94111.87
2018-11-25T20:40:08.498Z,94110.30
2018-11-25T20:45:11.858Z,94106.84
2018-11-25T20:50:15.205Z,94112.30
2018-11-25T20:55:18.555Z,94097.72
2018-11-25T21:00:22.046Z,94097.11
2018-11-25T21:05:25.442Z,94098.99
2018-11-25T21:10:29.484Z,94100.66
2018-11-25T21:15:33.599Z,94090.81
2018-11-25T21:20:36.950Z,94087.86
2018-11-25T21:25:40.282Z,94090.91
2018-11-25T21:30:44.401Z,94091.05
2018-11-25T21:35:47.754Z,94089.13
2018-11-25T21:40:51.126Z,94091.80
2018-11-25T21:45:54.520Z,94096.58
2018-11-25T21:50:57.856Z,94100.34
2018-11-25T21:56:01.211Z,94101.26
2018-11-25T22:01:05.962Z,94102.72
2018-11-25T22:06:09.302Z,94104.31
2018-11-25T22:11:12.704Z,94098.75
2018-11-25T22:16:16.047Z,94096.82
2018-11-25T22:21:19.408Z,94105.36
2018-11-25T22:26:22.773Z,94109.09
2018-11-25T22:31:26.123Z,94114.11
2018-11-25T22:36:30.250Z,94109.26
2018-11-25T22:41:34.354Z,94104.38
2018-11-25T22:46:37.704Z,94107.13
2018-11-25T22:51:41.913Z,94106.31
2018-11-25T22:56:46.032Z,94101.44
2018-11-25T23:01:49.376Z,94101.33
2018-11-25T23:06:52.717Z,94101.73
2018-11-25T23:11:56.066Z,94102.55
2018-11-25T23:16:59.392Z,94098.08
2018-11-25T23:22:03.518Z,94092.20
2018-11-25T23:27:06.855Z,94096.66
2018-11-25T23:32:10.954Z,94091.67
2018-11-25T23:37:14.299Z,94079.54
2018-11-25T23:42:18.420Z,94077.78
2018-11-25T23:47:22.519Z,94082.86
2018-11-25T23:52:25.869Z,94083.67
2018-11-25T23:57:29.984Z,94076.93
